Time;durP1;ratioP1;P1;durP2;ratioP2;P2;SDS_P1;SDS_P2;PMS_P1;PMS_P2;Temp;Humidity;BMP_temperature;BMP_pressure;BME280_temperature;BME280_humidity;BME280_pressure;Samples;Min_cycle;Max_cycle;Signal;HPM_P1;HPM_P2
2023/05/03 00:00:07;;;;;;;6.23;3.90;;;;;;;4.08;100.00;101952.38;688811;28;1121;-75
2023/05/03 00:00:28;;;;;;;6.72;4.00;;;;;;;4.11;100.00;101950.72;690090;28;892;-75
2023/05/03 00:00:48;;;;;;;7.55;4.13;;;;;;;4.11;100.00;101958.50;685066;28;4330;-76
2023/05/03 00:01:09;;;;;;;7.30;3.83;;;;;;;4.11;100.00;101956.78;684949;28;1248;-75
2023/05/03 00:01:32;;;;;;;7.37;3.77;;;;;;;4.09;100.00;101964.47;689183;28;1216;-75
2023/05/03 00:01:52;;;;;;;6.85;3.80;;;;;;;4.09;100.00;101953.25;685254;28;1309;-75
2023/05/03 00:02:13;;;;;;;7.40;3.80;;;;;;;4.07;100.00;101958.38;686747;28;1221;-75
2023/05/03 00:02:37;;;;;;;8.05;3.92;;;;;;;4.06;100.00;101964.38;681693;29;1133;-75
2023/05/03 00:02:58;;;;;;;7.10;3.75;;;;;;;4.11;100.00;101956.78;682634;28;1262;-74
2023/05/03 00:03:22;;;;;;;6.37;3.97;;;;;;;4.12;100.00;101963.72;684318;28;1298;-75
2023/05/03 00:03:44;;;;;;;8.02;3.78;;;;;;;4.11;100.00;101955.91;681338;28;4980;-75
2023/05/03 00:04:05;;;;;;;7.53;3.70;;;;;;;4.13;100.00;101946.53;682406;28;897;-75
2023/05/03 00:04:25;;;;;;;9.70;3.88;;;;;;;4.11;100.00;101959.38;682575;28;2302;-75
2023/05/03 00:04:47;;;;;;;6.97;3.80;;;;;;;4.09;100.00;101961.03;683842;28;2552;-75
2023/05/03 00:05:11;;;;;;;6.20;3.72;;;;;;;4.08;100.00;101952.38;683914;28;1579;-75
2023/05/03 00:05:31;;;;;;;6.32;3.60;;;;;;;4.07;100.00;101958.38;689847;28;1481;-75
2023/05/03 00:05:52;;;;;;;6.28;3.42;;;;;;;4.06;100.00;101948.84;685281;28;2565;-75
2023/05/03 00:06:14;;;;;;;7.77;3.90;;;;;;;4.07;100.00;101954.88;692058;28;894;-75
2023/05/03 00:06:34;;;;;;;6.45;3.70;;;;;;;4.05;100.00;101953.94;686354;28;1025;-75
2023/05/03 00:06:55;;;;;;;5.80;3.83;;;;;;;4.05;100.00;101957.41;687322;28;4280;-75
2023/05/03 00:07:17;;;;;;;7.13;4.00;;;;;;;4.06;100.00;101946.25;687998;28;1231;-75
2023/05/03 00:07:39;;;;;;;6.22;3.53;;;;;;;4.05;100.00;101954.81;686462;28;1236;-75
2023/05/03 00:07:59;;;;;;;6.65;3.53;;;;;;;4.05;100.00;101954.81;685499;28;1337;-75
2023/05/03 00:08:20;;;;;;;7.40;3.87;;;;;;;4.01;100.00;101954.63;688047;28;1168;-75
2023/05/03 00:08:42;;;;;;;8.35;3.90;;;;;;;3.95;100.00;101946.63;688214;28;1977;-75
2023/05/03 00:09:02;;;;;;;7.63;3.83;;;;;;;3.95;100.00;101947.50;687774;28;1229;-75
2023/05/03 00:09:23;;;;;;;7.90;4.20;;;;;;;3.97;100.00;101963.97;690126;28;1387;-75
2023/05/03 00:09:43;;;;;;;8.80;4.00;;;;;;;3.97;100.00;101963.09;687554;28;4396;-75
2023/05/03 00:10:05;;;;;;;6.50;3.95;;;;;;;3.96;100.00;101954.44;684958;28;2270;-75
2023/05/03 00:10:26;;;;;;;7.93;4.15;;;;;;;3.97;100.00;101952.72;684073;28;1236;-75
2023/05/03 00:10:46;;;;;;;8.47;4.00;;;;;;;3.97;100.00;101953.59;682892;28;1245;-75
2023/05/03 00:11:07;;;;;;;9.05;3.92;;;;;;;3.97;100.00;101958.78;683424;28;1149;-75
2023/05/03 00:11:27;;;;;;;8.32;3.88;;;;;;;3.99;100.00;101961.44;685094;28;1158;-75
2023/05/03 00:11:48;;;;;;;6.33;3.77;;;;;;;4.01;100.00;101959.81;685788;28;1628;-75
2023/05/03 00:12:08;;;;;;;7.40;3.92;;;;;;;4.00;100.00;101956.34;683122;28;1154;-75
2023/05/03 00:12:29;;;;;;;7.63;3.80;;;;;;;3.99;100.00;101957.16;685397;28;1366;-74
2023/05/03 00:12:50;;;;;;;7.75;3.90;;;;;;;3.96;100.00;101962.22;686993;28;4310;-74
2023/05/03 00:13:11;;;;;;;7.78;4.03;;;;;;;3.94;100.00;101950.03;688038;28;1246;-75
2023/05/03 00:13:31;;;;;;;6.38;3.80;;;;;;;3.94;100.00;101960.38;687932;28;1162;-74
2023/05/03 00:13:51;;;;;;;7.23;3.97;;;;;;;3.95;100.00;101952.66;686640;28;1077;-74
2023/05/03 00:14:12;;;;;;;7.40;3.72;;;;;;;3.94;100.00;101950.03;687085;28;2896;-75
2023/05/03 00:14:32;;;;;;;6.73;3.80;;;;;;;3.96;100.00;101950.97;685510;28;1336;-75
2023/05/03 00:14:53;;;;;;;8.73;4.10;;;;;;;3.96;100.00;101962.22;685099;28;1294;-74
2023/05/03 00:15:13;;;;;;;7.40;3.70;;;;;;;3.96;100.00;101950.97;690400;28;1251;-75
2023/05/03 00:15:33;;;;;;;6.97;3.97;;;;;;;3.91;100.00;101954.22;690409;28;1181;-74
2023/05/03 00:15:54;;;;;;;8.20;4.15;;;;;;;3.93;100.00;101949.13;685947;28;4299;-74
2023/05/03 00:16:14;;;;;;;7.33;3.93;;;;;;;3.95;100.00;101941.44;686892;28;3459;-75
2023/05/03 00:16:35;;;;;;;7.37;4.60;;;;;;;3.94;100.00;101947.44;686916;28;2462;-75
2023/05/03 00:16:55;;;;;;;7.55;4.07;;;;;;;3.92;100.00;101943.06;686090;28;1580;-74
2023/05/03 00:17:16;;;;;;;6.90;3.83;;;;;;;3.89;100.00;101932.59;687838;28;1235;-74
2023/05/03 00:17:36;;;;;;;8.23;4.00;;;;;;;3.91;100.00;101935.25;685045;28;1433;-75
2023/05/03 00:17:57;;;;;;;8.37;4.07;;;;;;;3.92;100.00;101939.63;682926;28;1157;-74
2023/05/03 00:18:17;;;;;;;6.57;3.58;;;;;;;3.92;100.00;101945.66;684718;28;1284;-75
2023/05/03 00:18:37;;;;;;;6.80;3.50;;;;;;;3.91;100.00;101930.94;684945;28;917;-75
2023/05/03 00:18:58;;;;;;;7.60;3.85;;;;;;;3.90;100.00;101933.47;685174;28;4351;-75
2023/05/03 00:19:18;;;;;;;7.67;3.90;;;;;;;3.90;100.00;101938.66;687684;28;1197;-74
2023/05/03 00:19:39;;;;;;;7.57;3.75;;;;;;;3.90;100.00;101967.09;690519;28;786;-74
2023/05/03 00:20:00;;;;;;;7.38;3.83;;;;;;;3.88;100.00;101925.66;685753;28;2343;-75
2023/05/03 00:20:21;;;;;;;8.13;3.97;;;;;;;3.87;100.00;101929.03;688111;28;781;-75
2023/05/03 00:20:41;;;;;;;7.75;3.83;;;;;;;3.83;100.00;101945.25;683902;28;1223;-74
2023/05/03 00:21:02;;;;;;;7.43;3.72;;;;;;;3.84;100.00;101936.69;686682;28;1676;-75
2023/05/03 00:21:22;;;;;;;8.03;3.80;;;;;;;3.83;100.00;101945.25;688402;28;1150;-74
2023/05/03 00:21:42;;;;;;;7.57;3.97;;;;;;;3.86;100.00;101931.56;689213;28;4391;-74
2023/05/03 00:22:03;;;;;;;7.10;3.90;;;;;;;3.90;100.00;101936.06;688871;28;1170;-75
2023/05/03 00:22:24;;;;;;;7.50;4.18;;;;;;;3.91;100.00;101930.94;690484;28;1282;-74
2023/05/03 00:22:44;;;;;;;8.07;4.40;;;;;;;3.92;100.00;101937.03;690385;28;753;-75
2023/05/03 00:23:05;;;;;;;8.10;4.00;;;;;;;3.89;100.00;101939.44;685569;28;1458;-74
2023/05/03 00:23:27;;;;;;;6.97;3.70;;;;;;;3.87;100.00;101931.63;690389;28;1047;-74
2023/05/03 00:23:47;;;;;;;6.82;3.72;;;;;;;3.88;100.00;101937.72;690295;28;1263;-75
2023/05/03 00:24:07;;;;;;;7.30;3.77;;;;;;;3.89;100.00;101931.69;684825;28;2360;-74
2023/05/03 00:24:30;;;;;;;7.57;3.80;;;;;;;3.89;100.00;101929.09;684528;28;971;-74
2023/05/03 00:24:53;;;;;;;7.60;4.00;;;;;;;3.89;100.00;101934.28;685685;28;4285;-74
2023/05/03 00:25:14;;;;;;;7.82;3.95;;;;;;;3.89;100.00;101934.28;683409;28;984;-74
2023/05/03 00:25:34;;;;;;;8.33;3.63;;;;;;;3.88;100.00;101935.13;684871;28;1347;-74
2023/05/03 00:25:56;;;;;;;10.37;3.80;;;;;;;3.87;100.00;101930.75;681766;28;1525;-75
2023/05/03 00:26:16;;;;;;;7.40;4.07;;;;;;;3.87;100.00;101931.63;682272;28;1473;-74
2023/05/03 00:26:37;;;;;;;7.40;4.15;;;;;;;3.90;100.00;101930.88;682590;28;1509;-74
2023/05/03 00:26:57;;;;;;;7.83;4.03;;;;;;;3.91;100.00;101932.66;680343;28;2613;-74
2023/05/03 00:27:18;;;;;;;7.20;3.92;;;;;;;3.87;100.00;101926.44;681737;29;989;-75
2023/05/03 00:27:38;;;;;;;7.47;4.07;;;;;;;3.84;100.00;101930.63;685017;28;928;-75
2023/05/03 00:27:58;;;;;;;6.93;3.85;;;;;;;3.85;100.00;101934.97;685165;28;4473;-74
2023/05/03 00:28:19;;;;;;;6.77;3.70;;;;;;;3.86;100.00;101931.56;685449;28;1241;-75
2023/05/03 00:28:40;;;;;;;8.52;4.03;;;;;;;3.86;100.00;101926.41;686648;28;1949;-74
2023/05/03 00:29:00;;;;;;;7.18;3.85;;;;;;;3.86;100.00;101929.88;686857;28;1525;-75
2023/05/03 00:29:21;;;;;;;7.40;3.77;;;;;;;3.89;100.00;101927.41;685467;28;1206;-73
2023/05/03 00:29:42;;;;;;;8.07;3.88;;;;;;;3.91;100.00;101927.50;684104;28;1393;-75
2023/05/03 00:30:03;;;;;;;9.07;3.92;;;;;;;3.92;100.00;101931.84;682538;28;2283;-75
2023/05/03 00:30:24;;;;;;;6.55;3.70;;;;;;;3.97;100.00;101921.69;682467;28;1318;-74
2023/05/03 00:30:44;;;;;;;8.38;3.85;;;;;;;3.96;100.00;101930.25;681492;28;4316;-75
2023/05/03 00:31:09;;;;;;;7.50;4.18;;;;;;;3.97;100.00;101922.56;678138;29;1671;-77
2023/05/03 00:31:29;;;;;;;7.82;4.25;;;;;;;3.96;100.00;101928.56;680575;29;889;-76
2023/05/03 00:31:50;;;;;;;5.93;3.63;;;;;;;3.97;100.00;101935.50;679601;29;923;-77
2023/05/03 00:32:10;;;;;;;8.43;3.63;;;;;;;3.99;100.00;101936.47;681369;28;2130;-77
2023/05/03 00:32:31;;;;;;;6.97;3.63;;;;;;;4.04;100.00;101932.38;685936;28;1444;-76
2023/05/03 00:32:52;;;;;;;6.40;3.15;;;;;;;4.03;100.00;101935.78;686685;28;1652;-76
2023/05/03 00:33:13;;;;;;;7.18;3.40;;;;;;;4.02;100.00;101931.41;684506;28;1164;-76
2023/05/03 00:33:34;;;;;;;6.97;3.83;;;;;;;4.07;100.00;101924.72;687268;28;1109;-74
2023/05/03 00:33:54;;;;;;;6.32;3.55;;;;;;;4.12;100.00;101922.31;685548;28;4632;-74
2023/05/03 00:34:15;;;;;;;6.20;3.57;;;;;;;4.14;100.00;101922.38;689576;28;2483;-74
2023/05/03 00:34:36;;;;;;;7.68;3.95;;;;;;;4.13;100.00;101933.59;686517;28;1392;-74
2023/05/03 00:34:57;;;;;;;7.55;3.80;;;;;;;4.17;100.00;101926.00;678739;29;1460;-74
2023/05/03 00:35:17;;;;;;;6.80;3.63;;;;;;;4.16;100.00;101920.75;679883;29;862;-74
2023/05/03 00:35:37;;;;;;;5.73;3.03;;;;;;;4.17;100.00;101931.19;685090;28;1264;-74
2023/05/03 00:35:58;;;;;;;5.95;3.30;;;;;;;4.11;100.00;101927.44;683446;28;1466;-74
2023/05/03 00:36:18;;;;;;;7.03;3.30;;;;;;;4.09;100.00;101922.22;684968;28;944;-74
2023/05/03 00:36:39;;;;;;;7.67;3.63;;;;;;;4.12;100.00;101924.03;686775;28;1330;-74
2023/05/03 00:37:00;;;;;;;7.28;3.60;;;;;;;4.13;100.00;101929.28;686239;28;4278;-75
2023/05/03 00:37:21;;;;;;;6.65;3.58;;;;;;;4.14;100.00;101925.88;687383;28;1354;-75
2023/05/03 00:37:42;;;;;;;9.52;3.92;;;;;;;4.13;100.00;101928.41;685314;28;890;-75
2023/05/03 00:38:02;;;;;;;9.30;3.77;;;;;;;4.08;100.00;101951.47;681233;28;1076;-75
2023/05/03 00:38:23;;;;;;;6.68;3.55;;;;;;;4.11;100.00;101928.31;682178;28;2427;-74
2023/05/03 00:38:43;;;;;;;7.27;3.70;;;;;;;4.08;100.00;101921.34;684691;28;1430;-74
2023/05/03 00:39:03;;;;;;;6.97;3.57;;;;;;;4.12;100.00;101927.50;683316;28;1719;-75
2023/05/03 00:39:24;;;;;;;5.57;3.07;;;;;;;4.11;100.00;101940.38;683749;28;1138;-75
2023/05/03 00:39:44;;;;;;;7.13;3.67;;;;;;;4.11;100.00;101953.31;685297;28;4502;-75
2023/05/03 00:40:06;;;;;;;8.00;3.73;;;;;;;4.09;100.00;101919.63;683783;28;1587;-74
2023/05/03 00:40:26;;;;;;;8.07;3.63;;;;;;;4.10;100.00;101931.75;689235;28;1322;-74
2023/05/03 00:40:53;;;;;;;6.47;3.70;;;;;;;4.11;100.00;101928.31;682376;28;1030;-74
2023/05/03 00:41:13;;;;;;;7.05;3.78;;;;;;;4.13;100.00;101931.00;682959;28;2566;-74
2023/05/03 00:41:34;;;;;;;6.43;3.38;;;;;;;4.12;100.00;101936.97;682739;28;878;-74
2023/05/03 00:41:56;;;;;;;5.63;3.55;;;;;;;4.12;100.00;101926.63;681578;28;3377;-73
2023/05/03 00:42:16;;;;;;;5.43;3.30;;;;;;;4.09;100.00;101928.25;680525;29;1177;-74
2023/05/03 00:42:37;;;;;;;5.60;3.30;;;;;;;4.12;100.00;101931.81;684737;28;1007;-74
2023/05/03 00:42:58;;;;;;;7.32;3.40;;;;;;;4.13;100.00;101928.41;685547;28;4318;-75
2023/05/03 00:43:18;;;;;;;6.97;3.30;;;;;;;4.13;100.00;101925.81;690746;28;1332;-74
2023/05/03 00:43:39;;;;;;;6.78;3.55;;;;;;;4.12;100.00;101936.97;687133;28;2388;-74
2023/05/03 00:44:00;;;;;;;6.97;3.67;;;;;;;4.14;100.00;101925.88;686401;28;1569;-77
2023/05/03 00:44:20;;;;;;;7.15;3.55;;;;;;;4.17;100.00;101932.91;687251;28;1164;-74
2023/05/03 00:44:41;;;;;;;8.00;3.77;;;;;;;4.17;100.00;101932.91;687829;28;1217;-74
2023/05/03 00:45:03;;;;;;;7.82;3.80;;;;;;;4.18;100.00;101932.03;686411;28;1695;-74
2023/05/03 00:45:24;;;;;;;8.52;3.70;;;;;;;4.18;100.00;101939.81;688289;28;1395;-74
2023/05/03 00:45:46;;;;;;;7.50;3.33;;;;;;;4.19;100.00;101939.00;689379;28;4442;-74
2023/05/03 00:46:08;;;;;;;5.78;3.40;;;;;;;4.20;100.00;101945.94;686637;28;1090;-74
2023/05/03 00:46:29;;;;;;;6.38;3.40;;;;;;;4.21;100.00;101937.34;688191;28;2518;-75
2023/05/03 00:46:50;;;;;;;6.53;3.47;;;;;;;4.19;100.00;101937.28;687543;28;1163;-75
2023/05/03 00:47:11;;;;;;;7.20;3.72;;;;;;;4.19;100.00;101939.88;685872;28;1617;-75
2023/05/03 00:47:32;;;;;;;6.70;3.50;;;;;;;4.17;100.00;101932.91;690204;28;1258;-75
2023/05/03 00:47:52;;;;;;;6.28;3.65;;;;;;;4.18;100.00;101942.41;688784;28;1501;-74
2023/05/03 00:48:13;;;;;;;6.53;3.67;;;;;;;4.16;100.00;101944.94;690083;28;1311;-75
2023/05/03 00:48:33;;;;;;;5.73;3.27;;;;;;;4.16;100.00;101941.47;692056;28;1276;-75
2023/05/03 00:48:54;;;;;;;6.03;3.45;;;;;;;4.17;100.00;101938.06;685442;28;4365;-75
2023/05/03 00:49:15;;;;;;;6.25;3.50;;;;;;;4.17;100.00;101945.84;687809;28;1261;-75
2023/05/03 00:49:35;;;;;;;7.63;3.60;;;;;;;4.15;100.00;101935.38;686890;28;1261;-75
2023/05/03 00:49:56;;;;;;;6.37;3.70;;;;;;;4.18;100.00;101942.41;682585;28;2608;-74
2023/05/03 00:50:17;;;;;;;5.80;3.47;;;;;;;4.18;100.00;101932.94;686436;28;1329;-75
2023/05/03 00:50:38;;;;;;;6.15;3.55;;;;;;;4.17;100.00;101945.84;687213;28;1150;-74
2023/05/03 00:51:01;;;;;;;6.03;3.60;;;;;;;4.17;100.00;101951.00;683700;28;1593;-75
2023/05/03 00:51:22;;;;;;;5.75;3.35;;;;;;;4.13;100.00;101936.16;682705;28;1272;-75
2023/05/03 00:51:43;;;;;;;5.97;3.47;;;;;;;4.13;100.00;101949.97;684563;28;4282;-75
2023/05/03 00:52:05;;;;;;;5.55;3.28;;;;;;;4.13;100.00;101938.75;683664;28;947;-75
2023/05/03 00:52:26;;;;;;;5.90;3.53;;;;;;;4.14;100.00;101945.69;684932;28;1320;-74
2023/05/03 00:52:47;;;;;;;7.87;4.03;;;;;;;4.13;100.00;101949.13;685091;28;1167;-75
2023/05/03 00:53:07;;;;;;;7.20;3.95;;;;;;;4.12;100.00;101950.78;680678;28;1519;-75
2023/05/03 00:53:30;;;;;;;6.78;3.70;;;;;;;4.11;100.00;101945.56;682426;29;1149;-75
2023/05/03 00:53:50;;;;;;;6.95;3.72;;;;;;;4.10;100.00;101949.84;682596;28;830;-75
2023/05/03 00:54:11;;;;;;;6.27;3.80;;;;;;;4.10;100.00;101955.03;682588;28;2265;-75
2023/05/03 00:54:33;;;;;;;7.93;3.70;;;;;;;4.11;100.00;101948.16;688151;28;1272;-74
2023/05/03 00:54:56;;;;;;;7.18;3.40;;;;;;;4.06;100.00;101945.38;687533;28;4362;-75
2023/05/03 00:55:16;;;;;;;7.43;3.72;;;;;;;4.05;100.00;101949.66;685861;28;844;-75
2023/05/03 00:55:37;;;;;;;7.87;3.80;;;;;;;4.06;100.00;101947.97;685988;28;885;-76
2023/05/03 00:55:59;;;;;;;7.68;3.75;;;;;;;4.04;100.00;101942.72;686557;28;1561;-75
2023/05/03 00:56:22;;;;;;;8.02;3.55;;;;;;;4.04;100.00;101945.31;684325;28;1083;-75
2023/05/03 00:56:43;;;;;;;6.72;3.65;;;;;;;4.02;100.00;101952.09;685164;28;2518;-74
2023/05/03 00:57:03;;;;;;;7.13;3.50;;;;;;;4.03;100.00;101946.13;682845;28;1595;-74
2023/05/03 00:57:26;;;;;;;7.68;3.67;;;;;;;4.01;100.00;101950.34;683622;28;1019;-74
2023/05/03 00:57:46;;;;;;;7.53;3.92;;;;;;;4.00;100.00;101943.41;685844;28;4357;-75
2023/05/03 00:58:07;;;;;;;8.55;3.95;;;;;;;4.00;100.00;101958.94;682220;28;1526;-75
2023/05/03 00:58:27;;;;;;;7.57;3.77;;;;;;;4.01;100.00;101949.47;681069;29;1126;-74
2023/05/03 00:58:49;;;;;;;7.30;3.60;;;;;;;4.00;100.00;101948.59;681965;29;1167;-75
2023/05/03 00:59:11;;;;;;;7.15;3.35;;;;;;;4.00;100.00;101953.75;682950;28;1614;-74
2023/05/03 00:59:33;;;;;;;6.45;3.42;;;;;;;4.00;100.00;101948.59;683631;28;2439;-73
2023/05/03 00:59:55;;;;;;;6.68;3.58;;;;;;;3.97;100.00;101943.25;680844;28;1531;-75
2023/05/03 01:00:16;;;;;;;7.10;3.50;;;;;;;3.99;100.00;101956.25;684437;28;1224;-74
2023/05/03 01:00:37;;;;;;;6.28;3.53;;;;;;;3.99;100.00;101956.25;684204;28;849;-74
2023/05/03 01:00:57;;;;;;;6.80;3.72;;;;;;;3.99;100.00;101946.81;687848;28;4249;-74
2023/05/03 01:01:18;;;;;;;5.83;3.57;;;;;;;4.02;100.00;101952.09;684917;28;1355;-74
2023/05/03 01:01:38;;;;;;;7.28;3.78;;;;;;;4.01;100.00;101952.91;684857;28;1200;-75
2023/05/03 01:01:59;;;;;;;8.37;3.80;;;;;;;3.97;100.00;101947.56;683697;28;1570;-74
2023/05/03 01:02:20;;;;;;;7.10;3.60;;;;;;;3.96;100.00;101954.44;682200;29;1146;-74
2023/05/03 01:02:40;;;;;;;6.43;3.45;;;;;;;3.94;100.00;101945.72;689839;28;1207;-75
2023/05/03 01:03:01;;;;;;;6.20;3.33;;;;;;;3.93;100.00;101946.53;688014;28;1552;-74
2023/05/03 01:03:22;;;;;;;6.87;3.53;;;;;;;3.92;100.00;101944.78;693408;28;869;-75
2023/05/03 01:03:45;;;;;;;6.18;3.80;;;;;;;3.91;100.00;101961.13;689412;28;5177;-75
2023/05/03 01:04:06;;;;;;;7.57;4.05;;;;;;;3.90;100.00;101944.72;685741;28;2350;-74
2023/05/03 01:04:27;;;;;;;5.65;3.50;;;;;;;3.90;100.00;101944.72;687380;28;1263;-74
2023/05/03 01:04:47;;;;;;;5.85;3.50;;;;;;;3.92;100.00;101944.78;683719;28;1004;-75
2023/05/03 01:05:08;;;;;;;6.47;3.58;;;;;;;3.91;100.00;101948.19;685663;28;1620;-74
2023/05/03 01:05:36;;;;;;;7.03;3.78;;;;;;;3.88;100.00;101941.16;687850;28;1446;-74
2023/05/03 01:06:17;;;;;;;6.97;4.10;;;;;;;3.87;100.00;101941.09;687433;28;1591;-75
2023/05/03 01:06:43;;;;;;;6.82;3.40;;;;;;;3.85;100.00;101948.81;679484;29;1530;-75
2023/05/03 01:07:29;;;;;;;6.82;3.50;;;;;;;3.88;100.00;101958.41;673964;29;4765;-74
2023/05/03 01:08:04;;;;;;;6.70;3.47;;;;;;;3.88;100.00;101940.28;688711;28;1055;-74
2023/05/03 01:08:34;;;;;;;8.25;3.40;;;;;;;3.87;100.00;101941.09;686184;28;1433;-74
2023/05/03 01:09:15;;;;;;;6.30;3.60;;;;;;;3.85;100.00;101942.72;685276;28;1985;-74
2023/05/03 01:09:47;;;;;;;7.03;3.55;;;;;;;3.79;100.00;101947.66;687070;28;2657;-75
2023/05/03 01:10:35;;;;;;;6.40;3.60;;;;;;;3.77;100.00;101938.91;687684;28;4940;-74
2023/05/03 01:11:06;;;;;;;6.75;3.55;;;;;;;3.76;100.00;101948.41;685737;28;1628;-74
2023/05/03 01:11:40;;;;;;;6.47;3.53;;;;;;;3.77;100.00;101949.25;684763;28;1217;-74
2023/05/03 01:12:01;;;;;;;7.32;3.50;;;;;;;3.77;100.00;101944.09;682010;28;2462;-74
2023/05/03 01:12:43;;;;;;;6.82;3.60;;;;;;;3.81;100.00;101940.81;684204;28;1339;-74
2023/05/03 01:13:08;;;;;;;6.95;3.80;;;;;;;3.78;100.00;101944.19;685228;28;5137;-74
2023/05/03 01:13:42;;;;;;;7.68;3.85;;;;;;;3.78;100.00;101945.88;689415;28;1411;-74
2023/05/03 01:14:14;;;;;;;7.97;3.70;;;;;;;3.74;100.00;101940.56;685167;28;1608;-74
2023/05/03 01:14:38;;;;;;;7.07;3.50;;;;;;;3.74;100.00;101940.56;686199;28;1053;-74
2023/05/03 01:15:11;;;;;;;6.78;3.50;;;;;;;3.74;100.00;101944.88;685133;28;1631;-74
2023/05/03 01:15:44;;;;;;;9.60;3.86;;;;;;;3.75;100.00;101944.94;689606;28;1299;-74
2023/05/03 01:16:13;;;;;;;7.18;3.95;;;;;;;3.76;100.00;101938.06;687556;28;4734;-74
2023/05/03 01:16:46;;;;;;;8.30;3.80;;;;;;;3.74;100.00;101940.56;687774;28;1160;-75
2023/05/03 01:17:11;;;;;;;5.88;3.50;;;;;;;3.71;100.00;101934.38;687687;28;1496;-74
2023/05/03 01:17:40;;;;;;;6.10;3.40;;;;;;;3.67;100.00;101933.38;689325;28;1245;-74
2023/05/03 01:18:15;;;;;;;8.07;3.40;;;;;;;3.64;100.00;101943.59;689009;28;1570;-75
2023/05/03 01:18:39;;;;;;;6.78;3.60;;;;;;;3.61;100.00;101943.44;687222;28;1345;-74
2023/05/03 01:19:03;;;;;;;6.88;3.63;;;;;;;3.62;100.00;101944.31;677980;28;4299;-74
2023/05/03 01:19:30;;;;;;;6.20;3.63;;;;;;;3.63;100.00;101931.47;683188;28;2524;-74
2023/05/03 01:19:57;;;;;;;6.43;3.47;;;;;;;3.62;100.00;101934.84;687366;28;731;-74
2023/05/03 01:20:23;;;;;;;5.97;3.35;;;;;;;3.61;100.00;101943.44;686810;28;1257;-75
2023/05/03 01:20:47;;;;;;;7.03;3.72;;;;;;;3.58;100.00;101948.47;684837;28;1225;-75
2023/05/03 01:21:09;;;;;;;6.30;3.55;;;;;;;3.56;100.00;101943.22;680338;28;1475;-74
2023/05/03 01:21:32;;;;;;;5.93;3.42;;;;;;;3.56;100.00;101935.47;679413;29;1218;-74
2023/05/03 01:22:02;;;;;;;6.38;3.28;;;;;;;3.57;100.00;101936.34;677180;29;4522;-74
2023/05/03 01:22:22;;;;;;;6.40;3.75;;;;;;;3.57;100.00;101938.94;680928;29;889;-75
2023/05/03 01:22:59;;;;;;;7.83;4.03;;;;;;;3.66;100.00;101941.94;686761;28;1200;-74
2023/05/03 01:23:39;;;;;;;7.40;3.60;;;;;;;3.69;100.00;101938.59;684960;28;982;-74
2023/05/03 01:24:06;;;;;;;7.90;3.70;;;;;;;3.58;100.00;101940.72;677471;29;1836;-75
2023/05/03 01:24:30;;;;;;;7.13;3.38;;;;;;;3.59;100.00;101929.56;687577;28;886;-75
2023/05/03 01:25:10;;;;;;;8.90;3.50;;;;;;;3.56;100.00;101951.00;686303;28;4311;-74
2023/05/03 01:25:31;;;;;;;7.65;3.63;;;;;;;3.49;100.00;101941.19;690290;28;1440;-74
2023/05/03 01:25:53;;;;;;;7.15;3.90;;;;;;;3.46;100.00;101947.91;685776;28;1311;-74
2023/05/03 01:26:24;;;;;;;6.50;3.72;;;;;;;3.42;100.00;101939.16;687800;28;1264;-74
2023/05/03 01:26:44;;;;;;;7.32;3.80;;;;;;;3.43;100.00;101945.19;689014;28;1316;-74
2023/05/03 01:27:05;;;;;;;7.05;3.72;;;;;;;3.41;100.00;101942.56;689234;28;1143;-74
2023/05/03 01:27:25;;;;;;;6.85;3.58;;;;;;;3.41;100.00;101937.38;687275;28;2567;-74
2023/05/03 01:27:46;;;;;;;6.73;3.63;;;;;;;3.39;100.00;101937.31;689710;28;4266;-75
2023/05/03 01:28:07;;;;;;;6.13;3.40;;;;;;;3.40;100.00;101946.81;688066;28;972;-75
2023/05/03 01:28:27;;;;;;;6.20;3.30;;;;;;;3.41;100.00;101938.25;687893;28;1350;-74
2023/05/03 01:28:49;;;;;;;7.03;3.63;;;;;;;3.41;100.00;101933.09;684796;28;1961;-74
2023/05/03 01:29:10;;;;;;;6.90;3.80;;;;;;;3.41;100.00;101938.25;683153;28;1453;-74
2023/05/03 01:29:31;;;;;;;7.10;3.97;;;;;;;3.41;100.00;101937.38;686188;28;1282;-74
2023/05/03 01:29:51;;;;;;;6.63;3.83;;;;;;;3.41;100.00;101938.25;686408;28;1279;-75
2023/05/03 01:30:12;;;;;;;7.90;3.70;;;;;;;3.38;100.00;101935.53;685445;28;1204;-75
2023/05/03 01:30:33;;;;;;;9.65;3.67;;;;;;;3.36;100.00;101937.16;686201;28;2625;-75
2023/05/03 01:30:58;;;;;;;6.97;3.58;;;;;;;3.34;100.00;101941.38;685355;28;4327;-75
2023/05/03 01:31:32;;;;;;;9.57;4.40;;;;;;;3.36;100.00;101946.63;689462;28;1208;-74
2023/05/03 01:32:00;;;;;;;6.00;3.60;;;;;;;3.37;100.00;101944.09;690712;28;1104;-75
2023/05/03 01:32:31;;;;;;;7.15;3.90;;;;;;;3.38;100.00;101940.72;689709;28;1264;-75
2023/05/03 01:33:02;;;;;;;7.28;3.70;;;;;;;3.34;100.00;101941.38;689783;28;1486;-74
2023/05/03 01:33:35;;;;;;;6.03;3.70;;;;;;;3.43;100.00;101948.66;685185;28;1422;-75
2023/05/03 01:34:14;;;;;;;6.43;3.47;;;;;;;3.41;100.00;101940.84;684858;28;4385;-75
2023/05/03 01:35:00;;;;;;;7.43;3.67;;;;;;;3.38;100.00;101939.84;695676;28;921;-75
2023/05/03 01:35:39;;;;;;;6.72;3.33;;;;;;;3.34;100.00;101945.69;694379;28;1220;-75
2023/05/03 01:36:31;;;;;;;8.25;3.63;;;;;;;3.29;100.00;101944.56;688343;28;1225;-75
2023/05/03 01:36:57;;;;;;;6.38;3.60;;;;;;;3.26;100.00;101937.56;683947;28;4325;-75
2023/05/03 01:37:18;;;;;;;7.47;4.03;;;;;;;3.25;100.00;101940.97;686925;28;1498;-75
2023/05/03 01:37:40;;;;;;;7.22;3.92;;;;;;;3.25;100.00;101943.53;693135;28;1272;-74
2023/05/03 01:38:01;;;;;;;7.18;3.58;;;;;;;3.20;100.00;101943.34;690999;28;3191;-75
2023/05/03 01:38:22;;;;;;;6.38;3.40;;;;;;;3.20;100.00;101935.59;683069;28;1221;-75
2023/05/03 01:38:43;;;;;;;6.50;3.83;;;;;;;3.27;100.00;101947.09;687546;28;1119;-75
2023/05/03 01:39:08;;;;;;;6.20;3.78;;;;;;;3.22;100.00;101938.25;687970;28;1189;-75
2023/05/03 01:39:51;;;;;;;6.35;3.58;;;;;;;3.20;100.00;101935.59;689803;28;1256;-74
2023/05/03 01:40:15;;;;;;;6.35;3.63;;;;;;;3.18;100.00;101949.25;685178;28;4751;-75
2023/05/03 01:40:48;;;;;;;6.50;3.80;;;;;;;3.16;100.00;101940.56;686661;28;2340;-75
2023/05/03 01:41:11;;;;;;;7.70;3.45;;;;;;;3.17;100.00;101945.78;686648;28;974;-75
2023/05/03 01:41:33;;;;;;;7.47;3.78;;;;;;;3.18;100.00;101955.28;686587;28;1247;-75
2023/05/03 01:41:54;;;;;;;7.43;3.88;;;;;;;3.14;100.00;101940.47;684751;28;923;-75
2023/05/03 01:42:15;;;;;;;7.38;3.70;;;;;;;3.12;100.00;101959.31;690459;28;1363;-75
2023/05/03 01:42:37;;;;;;;6.82;3.72;;;;;;;3.10;100.00;101942.84;688598;28;1196;-75
2023/05/03 01:42:58;;;;;;;8.30;3.80;;;;;;;3.09;100.00;101949.72;682335;28;4459;-75
2023/05/03 01:43:20;;;;;;;6.82;3.83;;;;;;;3.08;100.00;101935.03;683611;28;1494;-75
2023/05/03 01:43:42;;;;;;;6.55;3.70;;;;;;;3.10;100.00;101945.44;684117;28;1303;-75
2023/05/03 01:44:04;;;;;;;6.65;4.20;;;;;;;3.10;100.00;101945.44;682757;28;1362;-75
2023/05/03 01:44:25;;;;;;;6.53;3.80;;;;;;;3.11;100.00;101949.78;688834;28;1243;-75
2023/05/03 01:44:47;;;;;;;6.25;3.60;;;;;;;3.12;100.00;101939.53;687101;28;1371;-75
2023/05/03 01:45:09;;;;;;;6.30;3.47;;;;;;;3.13;100.00;101942.97;689053;28;986;-75
2023/05/03 01:45:29;;;;;;;6.50;3.75;;;;;;;3.11;100.00;101949.78;690044;28;923;-75
2023/05/03 01:45:50;;;;;;;6.23;3.63;;;;;;;3.09;100.00;101956.56;688551;28;4315;-75
2023/05/03 01:46:10;;;;;;;7.20;3.90;;;;;;;3.10;100.00;101945.44;685176;28;1355;-75
2023/05/03 01:46:31;;;;;;;8.15;4.20;;;;;;;3.11;100.00;101947.19;680474;29;2526;-75
2023/05/03 01:46:51;;;;;;;8.60;4.03;;;;;;;3.12;100.00;101946.41;679579;28;1080;-75
2023/05/03 01:47:13;;;;;;;6.50;3.90;;;;;;;3.13;100.00;101942.97;683654;28;1174;-75
2023/05/03 01:47:34;;;;;;;6.10;3.63;;;;;;;3.14;100.00;101952.50;682410;28;1331;-75
2023/05/03 01:47:56;;;;;;;7.20;3.88;;;;;;;3.14;100.00;101947.34;685349;28;1308;-75
2023/05/03 01:48:18;;;;;;;7.65;3.85;;;;;;;3.13;100.00;101940.38;689773;28;1293;-75
2023/05/03 01:48:39;;;;;;;6.93;3.90;;;;;;;3.13;100.00;101940.38;684823;28;1980;-75
2023/05/03 01:48:59;;;;;;;8.10;4.00;;;;;;;3.13;100.00;101941.28;678669;28;4365;-75
2023/05/03 01:49:23;;;;;;;7.82;3.53;;;;;;;3.12;100.00;101944.69;683551;28;1386;-75
2023/05/03 01:49:43;;;;;;;7.32;3.58;;;;;;;3.15;100.00;101950.00;686619;28;1205;-75
2023/05/03 01:50:04;;;;;;;7.13;3.93;;;;;;;3.16;100.00;101950.91;687151;28;1320;-75